sensor_id;sensor_type;location;lat;lon;timestamp;temperature;humidity
7708;DHT22;3896;48.758;8.888;2023-08-24T00:00:19;20.40;80.90
7708;DHT22;3896;48.758;8.888;2023-08-24T00:02:45;20.40;80.80
7708;DHT22;3896;48.758;8.888;2023-08-24T00:05:10;20.30;81.30
7708;DHT22;3896;48.758;8.888;2023-08-24T00:07:36;20.20;81.70
7708;DHT22;3896;48.758;8.888;2023-08-24T00:10:02;20.20;82.30
7708;DHT22;3896;48.758;8.888;2023-08-24T00:12:29;20.20;82.40
7708;DHT22;3896;48.758;8.888;2023-08-24T00:14:55;20.20;82.50
7708;DHT22;3896;48.758;8.888;2023-08-24T00:17:21;20.10;83.20
7708;DHT22;3896;48.758;8.888;2023-08-24T00:19:48;20.10;83.50
7708;DHT22;3896;48.758;8.888;2023-08-24T00:22:14;20.10;83.60
7708;DHT22;3896;48.758;8.888;2023-08-24T00:24:39;20.00;83.70
7708;DHT22;3896;48.758;8.888;2023-08-24T00:27:05;20.00;84.70
7708;DHT22;3896;48.758;8.888;2023-08-24T00:29:30;20.00;84.20
7708;DHT22;3896;48.758;8.888;2023-08-24T00:31:56;19.90;85.50
7708;DHT22;3896;48.758;8.888;2023-08-24T00:34:23;19.90;85.20
7708;DHT22;3896;48.758;8.888;2023-08-24T00:36:48;19.90;85.10
7708;DHT22;3896;48.758;8.888;2023-08-24T00:39:14;19.80;85.20
7708;DHT22;3896;48.758;8.888;2023-08-24T00:41:40;19.80;86.10
7708;DHT22;3896;48.758;8.888;2023-08-24T00:44:06;19.70;86.40
7708;DHT22;3896;48.758;8.888;2023-08-24T00:46:33;19.70;87.00
7708;DHT22;3896;48.758;8.888;2023-08-24T00:48:59;19.70;87.20
7708;DHT22;3896;48.758;8.888;2023-08-24T00:51:25;19.70;87.50
7708;DHT22;3896;48.758;8.888;2023-08-24T00:53:51;19.70;88.00
7708;DHT22;3896;48.758;8.888;2023-08-24T00:56:16;19.60;88.10
7708;DHT22;3896;48.758;8.888;2023-08-24T00:58:42;19.60;88.50
7708;DHT22;3896;48.758;8.888;2023-08-24T01:01:10;19.60;88.70
7708;DHT22;3896;48.758;8.888;2023-08-24T01:03:35;19.50;89.10
7708;DHT22;3896;48.758;8.888;2023-08-24T01:06:01;19.50;89.10
7708;DHT22;3896;48.758;8.888;2023-08-24T01:08:26;19.50;89.50
7708;DHT22;3896;48.758;8.888;2023-08-24T01:11:05;19.50;90.00
7708;DHT22;3896;48.758;8.888;2023-08-24T01:13:46;19.40;90.10
7708;DHT22;3896;48.758;8.888;2023-08-24T01:16:26;19.40;90.30
7708;DHT22;3896;48.758;8.888;2023-08-24T01:18:55;19.30;90.30
7708;DHT22;3896;48.758;8.888;2023-08-24T01:21:21;19.30;90.60
7708;DHT22;3896;48.758;8.888;2023-08-24T01:24:10;19.30;90.60
7708;DHT22;3896;48.758;8.888;2023-08-24T01:26:37;19.20;90.70
7708;DHT22;3896;48.758;8.888;2023-08-24T01:29:05;19.30;91.20
7708;DHT22;3896;48.758;8.888;2023-08-24T01:31:32;19.20;91.30
7708;DHT22;3896;48.758;8.888;2023-08-24T01:33:58;19.20;91.30
7708;DHT22;3896;48.758;8.888;2023-08-24T01:36:24;19.20;91.60
7708;DHT22;3896;48.758;8.888;2023-08-24T01:39:06;19.20;91.60
7708;DHT22;3896;48.758;8.888;2023-08-24T01:41:36;19.10;91.80
7708;DHT22;3896;48.758;8.888;2023-08-24T01:44:09;19.10;92.30
7708;DHT22;3896;48.758;8.888;2023-08-24T01:46:38;19.10;92.40
7708;DHT22;3896;48.758;8.888;2023-08-24T01:49:05;19.00;92.50
7708;DHT22;3896;48.758;8.888;2023-08-24T01:51:33;19.00;92.40
7708;DHT22;3896;48.758;8.888;2023-08-24T01:54:00;19.00;92.70
7708;DHT22;3896;48.758;8.888;2023-08-24T01:56:26;19.00;93.20
7708;DHT22;3896;48.758;8.888;2023-08-24T01:58:51;18.90;93.50
7708;DHT22;3896;48.758;8.888;2023-08-24T02:01:17;18.90;93.50
7708;DHT22;3896;48.758;8.888;2023-08-24T02:03:42;18.90;93.90
7708;DHT22;3896;48.758;8.888;2023-08-24T02:06:08;18.90;93.70
7708;DHT22;3896;48.758;8.888;2023-08-24T02:08:34;18.90;93.80
7708;DHT22;3896;48.758;8.888;2023-08-24T02:11:00;18.80;94.00
7708;DHT22;3896;48.758;8.888;2023-08-24T02:26:22;18.70;94.90
7708;DHT22;3896;48.758;8.888;2023-08-24T02:28:48;18.70;95.00
7708;DHT22;3896;48.758;8.888;2023-08-24T02:31:13;18.70;95.10
7708;DHT22;3896;48.758;8.888;2023-08-24T02:33:39;18.70;95.40
7708;DHT22;3896;48.758;8.888;2023-08-24T02:36:04;18.70;95.60
7708;DHT22;3896;48.758;8.888;2023-08-24T02:38:30;18.60;95.70
7708;DHT22;3896;48.758;8.888;2023-08-24T02:41:06;18.60;96.10
7708;DHT22;3896;48.758;8.888;2023-08-24T02:43:33;18.60;96.10
7708;DHT22;3896;48.758;8.888;2023-08-24T02:46:06;18.60;96.70
7708;DHT22;3896;48.758;8.888;2023-08-24T02:48:33;18.60;96.90
7708;DHT22;3896;48.758;8.888;2023-08-24T02:51:00;18.60;97.20
7708;DHT22;3896;48.758;8.888;2023-08-24T02:53:26;18.60;97.70
7708;DHT22;3896;48.758;8.888;2023-08-24T02:55:53;18.60;97.80
7708;DHT22;3896;48.758;8.888;2023-08-24T02:58:19;18.50;97.60
7708;DHT22;3896;48.758;8.888;2023-08-24T03:00:44;18.50;98.10
7708;DHT22;3896;48.758;8.888;2023-08-24T03:03:10;18.50;98.30
7708;DHT22;3896;48.758;8.888;2023-08-24T03:05:35;18.50;98.30
7708;DHT22;3896;48.758;8.888;2023-08-24T03:08:01;18.50;98.40
7708;DHT22;3896;48.758;8.888;2023-08-24T03:10:27;18.50;98.50
7708;DHT22;3896;48.758;8.888;2023-08-24T03:12:52;18.50;98.80
7708;DHT22;3896;48.758;8.888;2023-08-24T03:15:18;18.50;99.10
7708;DHT22;3896;48.758;8.888;2023-08-24T03:17:44;18.50;99.60
7708;DHT22;3896;48.758;8.888;2023-08-24T03:20:09;18.50;99.70
7708;DHT22;3896;48.758;8.888;2023-08-24T03:22:36;18.40;99.70
7708;DHT22;3896;48.758;8.888;2023-08-24T03:25:02;18.40;99.90
7708;DHT22;3896;48.758;8.888;2023-08-24T03:27:28;18.40;99.90
7708;DHT22;3896;48.758;8.888;2023-08-24T03:29:54;18.40;99.90
7708;DHT22;3896;48.758;8.888;2023-08-24T03:32:20;18.40;99.90
7708;DHT22;3896;48.758;8.888;2023-08-24T03:34:45;18.40;99.90
7708;DHT22;3896;48.758;8.888;2023-08-24T03:37:11;18.40;99.90
7708;DHT22;3896;48.758;8.888;2023-08-24T03:39:37;18.40;99.90
7708;DHT22;3896;48.758;8.888;2023-08-24T03:42:03;18.40;99.90
7708;DHT22;3896;48.758;8.888;2023-08-24T03:44:29;18.40;99.90
7708;DHT22;3896;48.758;8.888;2023-08-24T03:46:55;18.40;99.90
7708;DHT22;3896;48.758;8.888;2023-08-24T03:49:20;18.40;99.90
7708;DHT22;3896;48.758;8.888;2023-08-24T03:51:46;18.30;99.90
7708;DHT22;3896;48.758;8.888;2023-08-24T03:54:11;18.30;99.90
7708;DHT22;3896;48.758;8.888;2023-08-24T03:56:37;18.30;99.90
7708;DHT22;3896;48.758;8.888;2023-08-24T03:59:02;18.30;99.90
7708;DHT22;3896;48.758;8.888;2023-08-24T04:01:28;18.30;99.90
7708;DHT22;3896;48.758;8.888;2023-08-24T04:03:54;18.40;99.90
7708;DHT22;3896;48.758;8.888;2023-08-24T04:06:19;18.40;99.90
7708;DHT22;3896;48.758;8.888;2023-08-24T04:08:45;18.40;99.90
7708;DHT22;3896;48.758;8.888;2023-08-24T04:11:11;18.40;99.90
7708;DHT22;3896;48.758;8.888;2023-08-24T04:13:36;18.40;99.90
7708;DHT22;3896;48.758;8.888;2023-08-24T04:16:02;18.40;99.90
7708;DHT22;3896;48.758;8.888;2023-08-24T04:18:29;18.40;99.90
7708;DHT22;3896;48.758;8.888;2023-08-24T04:20:55;18.40;99.90
7708;DHT22;3896;48.758;8.888;2023-08-24T04:23:24;18.40;99.90
7708;DHT22;3896;48.758;8.888;2023-08-24T04:25:51;18.40;99.90
7708;DHT22;3896;48.758;8.888;2023-08-24T04:28:16;18.40;99.90
7708;DHT22;3896;48.758;8.888;2023-08-24T04:30:52;18.40;99.90
7708;DHT22;3896;48.758;8.888;2023-08-24T04:33:18;18.40;99.90
7708;DHT22;3896;48.758;8.888;2023-08-24T04:35:46;18.40;99.90
7708;DHT22;3896;48.758;8.888;2023-08-24T04:38:12;18.40;99.90
7708;DHT22;3896;48.758;8.888;2023-08-24T04:40:51;18.40;99.90
7708;DHT22;3896;48.758;8.888;2023-08-24T04:43:18;18.40;99.90
7708;DHT22;3896;48.758;8.888;2023-08-24T04:45:46;18.40;99.90
7708;DHT22;3896;48.758;8.888;2023-08-24T04:48:13;18.40;99.90
7708;DHT22;3896;48.758;8.888;2023-08-24T04:50:38;18.40;99.90
7708;DHT22;3896;48.758;8.888;2023-08-24T04:53:04;18.40;99.90
7708;DHT22;3896;48.758;8.888;2023-08-24T04:55:30;18.40;99.90
7708;DHT22;3896;48.758;8.888;2023-08-24T04:57:55;18.40;99.90
7708;DHT22;3896;48.758;8.888;2023-08-24T05:00:21;18.40;99.90
7708;DHT22;3896;48.758;8.888;2023-08-24T05:02:46;18.40;99.90
7708;DHT22;3896;48.758;8.888;2023-08-24T05:05:12;18.50;99.90
7708;DHT22;3896;48.758;8.888;2023-08-24T05:07:41;18.40;99.90
7708;DHT22;3896;48.758;8.888;2023-08-24T05:10:07;18.50;99.90
7708;DHT22;3896;48.758;8.888;2023-08-24T05:12:33;18.50;99.90
7708;DHT22;3896;48.758;8.888;2023-08-24T05:15:02;18.50;99.90
7708;DHT22;3896;48.758;8.888;2023-08-24T05:17:28;18.50;99.90
7708;DHT22;3896;48.758;8.888;2023-08-24T05:19:54;18.50;99.90
7708;DHT22;3896;48.758;8.888;2023-08-24T05:22:20;18.50;99.90
7708;DHT22;3896;48.758;8.888;2023-08-24T05:24:46;18.60;99.90
7708;DHT22;3896;48.758;8.888;2023-08-24T05:27:12;18.60;99.90
7708;DHT22;3896;48.758;8.888;2023-08-24T05:29:37;18.60;99.90
7708;DHT22;3896;48.758;8.888;2023-08-24T05:32:03;18.60;99.90
7708;DHT22;3896;48.758;8.888;2023-08-24T05:34:29;18.60;99.90
7708;DHT22;3896;48.758;8.888;2023-08-24T05:36:54;18.60;99.90
7708;DHT22;3896;48.758;8.888;2023-08-24T05:39:20;18.70;99.90
7708;DHT22;3896;48.758;8.888;2023-08-24T05:41:45;18.70;99.90
7708;DHT22;3896;48.758;8.888;2023-08-24T05:44:11;18.80;99.90
7708;DHT22;3896;48.758;8.888;2023-08-24T05:46:37;18.80;99.90
7708;DHT22;3896;48.758;8.888;2023-08-24T05:49:02;18.80;99.90
7708;DHT22;3896;48.758;8.888;2023-08-24T05:51:29;18.90;99.90
7708;DHT22;3896;48.758;8.888;2023-08-24T05:53:55;18.90;99.90
7708;DHT22;3896;48.758;8.888;2023-08-24T05:56:21;19.00;99.90
7708;DHT22;3896;48.758;8.888;2023-08-24T05:58:48;19.00;99.90
7708;DHT22;3896;48.758;8.888;2023-08-24T06:01:13;19.10;99.90
7708;DHT22;3896;48.758;8.888;2023-08-24T06:03:39;19.10;99.90
7708;DHT22;3896;48.758;8.888;2023-08-24T06:06:04;19.10;99.90
7708;DHT22;3896;48.758;8.888;2023-08-24T06:08:31;19.20;99.90
7708;DHT22;3896;48.758;8.888;2023-08-24T06:10:57;19.30;99.90
7708;DHT22;3896;48.758;8.888;2023-08-24T06:13:23;19.30;99.90
7708;DHT22;3896;48.758;8.888;2023-08-24T06:15:48;19.30;99.90
7708;DHT22;3896;48.758;8.888;2023-08-24T06:18:14;19.40;99.90
7708;DHT22;3896;48.758;8.888;2023-08-24T06:20:39;19.40;99.90
7708;DHT22;3896;48.758;8.888;2023-08-24T06:23:05;19.70;99.90
7708;DHT22;3896;48.758;8.888;2023-08-24T06:25:32;19.70;99.90
7708;DHT22;3896;48.758;8.888;2023-08-24T06:27:58;19.70;99.90
7708;DHT22;3896;48.758;8.888;2023-08-24T06:30:25;19.70;99.90
7708;DHT22;3896;48.758;8.888;2023-08-24T06:32:50;19.80;99.90
7708;DHT22;3896;48.758;8.888;2023-08-24T06:35:16;19.80;99.90
7708;DHT22;3896;48.758;8.888;2023-08-24T06:37:42;19.80;99.90
7708;DHT22;3896;48.758;8.888;2023-08-24T06:40:09;19.90;99.90
7708;DHT22;3896;48.758;8.888;2023-08-24T06:42:34;19.90;99.90
7708;DHT22;3896;48.758;8.888;2023-08-24T06:45:00;19.90;99.90
7708;DHT22;3896;48.758;8.888;2023-08-24T06:47:25;20.00;99.90
7708;DHT22;3896;48.758;8.888;2023-08-24T06:49:51;20.00;99.90
7708;DHT22;3896;48.758;8.888;2023-08-24T06:52:17;20.10;99.90
7708;DHT22;3896;48.758;8.888;2023-08-24T06:54:42;20.10;99.90
7708;DHT22;3896;48.758;8.888;2023-08-24T06:57:08;20.20;99.90
7708;DHT22;3896;48.758;8.888;2023-08-24T06:59:33;20.20;99.90
7708;DHT22;3896;48.758;8.888;2023-08-24T07:01:59;20.30;99.90
7708;DHT22;3896;48.758;8.888;2023-08-24T07:04:26;20.40;99.90
7708;DHT22;3896;48.758;8.888;2023-08-24T07:06:52;20.40;99.90
7708;DHT22;3896;48.758;8.888;2023-08-24T07:09:19;20.40;99.90
7708;DHT22;3896;48.758;8.888;2023-08-24T07:11:44;20.50;99.90
7708;DHT22;3896;48.758;8.888;2023-08-24T07:14:10;20.60;99.90
7708;DHT22;3896;48.758;8.888;2023-08-24T07:16:36;20.60;99.90
7708;DHT22;3896;48.758;8.888;2023-08-24T07:19:01;20.70;99.90
7708;DHT22;3896;48.758;8.888;2023-08-24T07:21:27;20.70;99.90
7708;DHT22;3896;48.758;8.888;2023-08-24T07:23:53;20.80;99.90
7708;DHT22;3896;48.758;8.888;2023-08-24T07:26:19;20.90;99.90
7708;DHT22;3896;48.758;8.888;2023-08-24T07:28:44;20.90;99.90
7708;DHT22;3896;48.758;8.888;2023-08-24T07:31:11;21.00;99.90
7708;DHT22;3896;48.758;8.888;2023-08-24T07:33:40;21.10;99.90
7708;DHT22;3896;48.758;8.888;2023-08-24T07:36:06;21.20;99.90
7708;DHT22;3896;48.758;8.888;2023-08-24T07:38:32;21.30;99.90
7708;DHT22;3896;48.758;8.888;2023-08-24T07:40:58;21.40;99.90
7708;DHT22;3896;48.758;8.888;2023-08-24T07:43:24;21.50;99.90
7708;DHT22;3896;48.758;8.888;2023-08-24T07:45:50;21.60;99.90
7708;DHT22;3896;48.758;8.888;2023-08-24T07:48:15;21.70;99.90
7708;DHT22;3896;48.758;8.888;2023-08-24T07:50:41;21.80;99.90
7708;DHT22;3896;48.758;8.888;2023-08-24T07:53:06;21.90;99.90
7708;DHT22;3896;48.758;8.888;2023-08-24T07:55:32;22.00;99.90
7708;DHT22;3896;48.758;8.888;2023-08-24T07:57:57;22.10;99.90
7708;DHT22;3896;48.758;8.888;2023-08-24T08:00:23;22.30;99.90
7708;DHT22;3896;48.758;8.888;2023-08-24T08:02:50;22.40;99.90
7708;DHT22;3896;48.758;8.888;2023-08-24T08:05:17;22.60;99.90
7708;DHT22;3896;48.758;8.888;2023-08-24T08:07:43;22.70;99.90
7708;DHT22;3896;48.758;8.888;2023-08-24T08:10:09;22.90;99.90
7708;DHT22;3896;48.758;8.888;2023-08-24T08:12:35;23.00;99.60
7708;DHT22;3896;48.758;8.888;2023-08-24T08:15:01;23.10;99.60
7708;DHT22;3896;48.758;8.888;2023-08-24T08:17:27;23.30;98.80
7708;DHT22;3896;48.758;8.888;2023-08-24T08:19:56;23.50;98.60
7708;DHT22;3896;48.758;8.888;2023-08-24T08:22:23;23.60;98.20
7708;DHT22;3896;48.758;8.888;2023-08-24T08:24:48;23.80;97.40
7708;DHT22;3896;48.758;8.888;2023-08-24T08:27:15;23.90;96.50
7708;DHT22;3896;48.758;8.888;2023-08-24T08:29:40;24.00;95.90
7708;DHT22;3896;48.758;8.888;2023-08-24T08:32:06;24.50;94.60
7708;DHT22;3896;48.758;8.888;2023-08-24T08:34:33;24.60;94.00
7708;DHT22;3896;48.758;8.888;2023-08-24T08:36:58;24.60;93.50
7708;DHT22;3896;48.758;8.888;2023-08-24T08:39:25;24.80;93.50
7708;DHT22;3896;48.758;8.888;2023-08-24T08:41:51;24.80;93.20
7708;DHT22;3896;48.758;8.888;2023-08-24T08:44:17;24.90;92.60
7708;DHT22;3896;48.758;8.888;2023-08-24T08:46:43;25.10;92.20
7708;DHT22;3896;48.758;8.888;2023-08-24T08:49:11;25.20;91.60
7708;DHT22;3896;48.758;8.888;2023-08-24T08:51:38;25.40;91.20
7708;DHT22;3896;48.758;8.888;2023-08-24T08:54:05;25.50;90.90
7708;DHT22;3896;48.758;8.888;2023-08-24T08:56:32;25.60;90.80
7708;DHT22;3896;48.758;8.888;2023-08-24T08:58:59;25.80;90.20
7708;DHT22;3896;48.758;8.888;2023-08-24T09:01:27;26.00;90.00
7708;DHT22;3896;48.758;8.888;2023-08-24T09:03:53;26.10;89.70
7708;DHT22;3896;48.758;8.888;2023-08-24T09:06:19;26.30;88.40
7708;DHT22;3896;48.758;8.888;2023-08-24T09:08:45;26.40;87.40
7708;DHT22;3896;48.758;8.888;2023-08-24T09:11:11;26.60;86.90
7708;DHT22;3896;48.758;8.888;2023-08-24T09:13:36;26.80;86.30
7708;DHT22;3896;48.758;8.888;2023-08-24T09:16:06;27.00;85.30
7708;DHT22;3896;48.758;8.888;2023-08-24T09:18:39;27.10;84.30
7708;DHT22;3896;48.758;8.888;2023-08-24T09:21:12;27.30;83.80
7708;DHT22;3896;48.758;8.888;2023-08-24T09:23:43;27.60;83.30
7708;DHT22;3896;48.758;8.888;2023-08-24T09:26:09;27.70;81.60
7708;DHT22;3896;48.758;8.888;2023-08-24T09:28:35;27.90;80.60
7708;DHT22;3896;48.758;8.888;2023-08-24T09:31:02;28.00;80.50
7708;DHT22;3896;48.758;8.888;2023-08-24T09:33:29;28.10;79.80
7708;DHT22;3896;48.758;8.888;2023-08-24T09:35:55;28.20;78.50
7708;DHT22;3896;48.758;8.888;2023-08-24T09:38:26;28.40;77.90
7708;DHT22;3896;48.758;8.888;2023-08-24T09:40:55;28.60;77.70
7708;DHT22;3896;48.758;8.888;2023-08-24T09:43:22;28.70;77.10
7708;DHT22;3896;48.758;8.888;2023-08-24T09:45:52;28.90;76.30
7708;DHT22;3896;48.758;8.888;2023-08-24T09:48:18;29.10;75.50
7708;DHT22;3896;48.758;8.888;2023-08-24T09:50:45;29.20;74.90
7708;DHT22;3896;48.758;8.888;2023-08-24T09:53:19;29.40;74.40
7708;DHT22;3896;48.758;8.888;2023-08-24T09:56:02;29.50;73.20
7708;DHT22;3896;48.758;8.888;2023-08-24T09:58:29;29.70;72.50
7708;DHT22;3896;48.758;8.888;2023-08-24T10:00:55;29.90;72.10
7708;DHT22;3896;48.758;8.888;2023-08-24T10:03:26;29.90;71.30
7708;DHT22;3896;48.758;8.888;2023-08-24T10:05:54;30.10;70.70
7708;DHT22;3896;48.758;8.888;2023-08-24T10:08:21;30.30;70.10
7708;DHT22;3896;48.758;8.888;2023-08-24T10:10:53;30.40;69.80
7708;DHT22;3896;48.758;8.888;2023-08-24T10:15:58;30.70;68.40
7708;DHT22;3896;48.758;8.888;2023-08-24T10:18:25;30.80;67.50
7708;DHT22;3896;48.758;8.888;2023-08-24T10:20:52;30.90;66.80
7708;DHT22;3896;48.758;8.888;2023-08-24T10:23:19;31.00;66.20
7708;DHT22;3896;48.758;8.888;2023-08-24T10:25:46;31.20;66.10
7708;DHT22;3896;48.758;8.888;2023-08-24T10:28:13;31.30;65.70
7708;DHT22;3896;48.758;8.888;2023-08-24T10:30:40;31.40;65.60
7708;DHT22;3896;48.758;8.888;2023-08-24T10:33:06;31.60;65.40
7708;DHT22;3896;48.758;8.888;2023-08-24T10:35:33;31.70;64.40
7708;DHT22;3896;48.758;8.888;2023-08-24T10:37:58;31.90;63.40
7708;DHT22;3896;48.758;8.888;2023-08-24T10:40:37;32.10;62.10
7708;DHT22;3896;48.758;8.888;2023-08-24T10:43:09;32.20;61.70
7708;DHT22;3896;48.758;8.888;2023-08-24T10:48:32;32.60;60.10
7708;DHT22;3896;48.758;8.888;2023-08-24T10:51:23;32.70;59.40
7708;DHT22;3896;48.758;8.888;2023-08-24T10:53:52;32.90;59.10
7708;DHT22;3896;48.758;8.888;2023-08-24T10:56:19;33.00;58.70
7708;DHT22;3896;48.758;8.888;2023-08-24T10:58:46;33.20;58.30
7708;DHT22;3896;48.758;8.888;2023-08-24T11:01:18;33.30;58.00
7708;DHT22;3896;48.758;8.888;2023-08-24T11:03:54;33.40;57.60
7708;DHT22;3896;48.758;8.888;2023-08-24T11:06:22;33.50;57.50
7708;DHT22;3896;48.758;8.888;2023-08-24T11:09:05;33.60;57.10
7708;DHT22;3896;48.758;8.888;2023-08-24T11:11:32;33.70;56.90
7708;DHT22;3896;48.758;8.888;2023-08-24T11:14:24;33.90;56.10
7708;DHT22;3896;48.758;8.888;2023-08-24T11:16:58;34.00;56.30
7708;DHT22;3896;48.758;8.888;2023-08-24T11:19:24;34.20;55.80
7708;DHT22;3896;48.758;8.888;2023-08-24T11:21:51;34.30;55.30
7708;DHT22;3896;48.758;8.888;2023-08-24T11:24:17;34.40;54.90
7708;DHT22;3896;48.758;8.888;2023-08-24T11:26:44;34.60;54.30
7708;DHT22;3896;48.758;8.888;2023-08-24T11:29:11;34.70;54.50
7708;DHT22;3896;48.758;8.888;2023-08-24T11:31:37;34.80;54.10
7708;DHT22;3896;48.758;8.888;2023-08-24T11:34:03;34.90;53.80
7708;DHT22;3896;48.758;8.888;2023-08-24T11:36:30;35.10;53.30
7708;DHT22;3896;48.758;8.888;2023-08-24T11:38:58;35.30;52.50
7708;DHT22;3896;48.758;8.888;2023-08-24T11:41:24;35.50;51.90
7708;DHT22;3896;48.758;8.888;2023-08-24T11:44:00;35.60;51.80
7708;DHT22;3896;48.758;8.888;2023-08-24T11:46:28;35.70;51.90
7708;DHT22;3896;48.758;8.888;2023-08-24T11:48:56;35.70;51.90
7708;DHT22;3896;48.758;8.888;2023-08-24T11:51:21;35.90;51.60
7708;DHT22;3896;48.758;8.888;2023-08-24T11:53:47;35.90;51.20
7708;DHT22;3896;48.758;8.888;2023-08-24T11:56:13;36.00;50.80
7708;DHT22;3896;48.758;8.888;2023-08-24T11:58:43;36.20;50.70
7708;DHT22;3896;48.758;8.888;2023-08-24T12:01:10;36.20;50.30
7708;DHT22;3896;48.758;8.888;2023-08-24T12:03:37;36.30;50.60
7708;DHT22;3896;48.758;8.888;2023-08-24T12:06:11;36.40;50.10
7708;DHT22;3896;48.758;8.888;2023-08-24T12:08:41;36.60;50.20
7708;DHT22;3896;48.758;8.888;2023-08-24T12:11:21;36.70;49.60
7708;DHT22;3896;48.758;8.888;2023-08-24T12:13:51;36.80;49.20
7708;DHT22;3896;48.758;8.888;2023-08-24T12:16:18;36.80;49.40
7708;DHT22;3896;48.758;8.888;2023-08-24T12:18:56;36.80;49.20
7708;DHT22;3896;48.758;8.888;2023-08-24T12:21:23;36.80;49.50
7708;DHT22;3896;48.758;8.888;2023-08-24T12:23:59;36.90;49.40
7708;DHT22;3896;48.758;8.888;2023-08-24T12:26:26;37.00;49.50
7708;DHT22;3896;48.758;8.888;2023-08-24T12:28:52;37.10;49.00
7708;DHT22;3896;48.758;8.888;2023-08-24T12:31:19;37.20;48.90
7708;DHT22;3896;48.758;8.888;2023-08-24T12:33:45;37.30;48.60
7708;DHT22;3896;48.758;8.888;2023-08-24T12:36:11;37.40;48.50
7708;DHT22;3896;48.758;8.888;2023-08-24T12:38:37;37.50;48.20
7708;DHT22;3896;48.758;8.888;2023-08-24T12:41:04;37.60;48.10
7708;DHT22;3896;48.758;8.888;2023-08-24T12:43:29;37.70;48.20
7708;DHT22;3896;48.758;8.888;2023-08-24T12:45:55;37.70;47.90
7708;DHT22;3896;48.758;8.888;2023-08-24T12:48:20;37.80;47.60
7708;DHT22;3896;48.758;8.888;2023-08-24T12:50:46;37.90;47.70
7708;DHT22;3896;48.758;8.888;2023-08-24T12:53:11;38.00;47.40
7708;DHT22;3896;48.758;8.888;2023-08-24T12:55:39;38.10;47.60
7708;DHT22;3896;48.758;8.888;2023-08-24T12:58:05;38.20;47.60
7708;DHT22;3896;48.758;8.888;2023-08-24T13:00:31;38.30;47.00
7708;DHT22;3896;48.758;8.888;2023-08-24T13:02:56;38.50;46.60
7708;DHT22;3896;48.758;8.888;2023-08-24T13:05:22;38.60;46.20
7708;DHT22;3896;48.758;8.888;2023-08-24T13:07:48;38.80;46.10
7708;DHT22;3896;48.758;8.888;2023-08-24T13:10:15;38.90;45.60
7708;DHT22;3896;48.758;8.888;2023-08-24T13:12:40;39.00;44.90
7708;DHT22;3896;48.758;8.888;2023-08-24T13:15:06;39.10;44.30
7708;DHT22;3896;48.758;8.888;2023-08-24T13:17:32;39.30;43.90
7708;DHT22;3896;48.758;8.888;2023-08-24T13:19:58;39.30;43.30
7708;DHT22;3896;48.758;8.888;2023-08-24T13:22:23;39.40;43.60
7708;DHT22;3896;48.758;8.888;2023-08-24T13:24:49;39.60;43.70
7708;DHT22;3896;48.758;8.888;2023-08-24T13:27:15;39.70;43.00
7708;DHT22;3896;48.758;8.888;2023-08-24T13:29:41;39.80;42.60
7708;DHT22;3896;48.758;8.888;2023-08-24T13:32:07;40.00;41.50
7708;DHT22;3896;48.758;8.888;2023-08-24T13:34:33;40.10;40.70
7708;DHT22;3896;48.758;8.888;2023-08-24T13:36:59;40.30;40.10
7708;DHT22;3896;48.758;8.888;2023-08-24T13:39:28;40.30;39.90
7708;DHT22;3896;48.758;8.888;2023-08-24T13:41:57;40.50;40.20
7708;DHT22;3896;48.758;8.888;2023-08-24T13:44:23;40.60;39.90
7708;DHT22;3896;48.758;8.888;2023-08-24T13:46:50;40.80;39.70
7708;DHT22;3896;48.758;8.888;2023-08-24T13:49:16;40.80;39.00
7708;DHT22;3896;48.758;8.888;2023-08-24T13:51:42;41.00;38.70
7708;DHT22;3896;48.758;8.888;2023-08-24T13:54:15;41.10;38.50
7708;DHT22;3896;48.758;8.888;2023-08-24T13:56:42;41.30;38.20
7708;DHT22;3896;48.758;8.888;2023-08-24T13:59:07;41.40;38.30
7708;DHT22;3896;48.758;8.888;2023-08-24T14:01:33;41.50;38.20
7708;DHT22;3896;48.758;8.888;2023-08-24T14:03:58;41.50;38.00
7708;DHT22;3896;48.758;8.888;2023-08-24T14:06:24;41.50;38.00
7708;DHT22;3896;48.758;8.888;2023-08-24T14:08:50;41.50;38.00
7708;DHT22;3896;48.758;8.888;2023-08-24T14:11:15;41.40;38.30
7708;DHT22;3896;48.758;8.888;2023-08-24T14:13:42;41.30;38.40
7708;DHT22;3896;48.758;8.888;2023-08-24T14:16:08;41.10;38.80
7708;DHT22;3896;48.758;8.888;2023-08-24T14:18:34;40.90;39.30
7708;DHT22;3896;48.758;8.888;2023-08-24T14:21:02;40.70;40.60
7708;DHT22;3896;48.758;8.888;2023-08-24T14:23:28;40.50;43.20
7708;DHT22;3896;48.758;8.888;2023-08-24T14:25:53;40.20;44.50
7708;DHT22;3896;48.758;8.888;2023-08-24T14:28:20;40.00;45.10
7708;DHT22;3896;48.758;8.888;2023-08-24T14:30:51;39.70;44.50
7708;DHT22;3896;48.758;8.888;2023-08-24T14:33:17;39.50;44.50
7708;DHT22;3896;48.758;8.888;2023-08-24T14:35:50;39.30;44.70
7708;DHT22;3896;48.758;8.888;2023-08-24T14:38:16;39.00;45.10
7708;DHT22;3896;48.758;8.888;2023-08-24T14:40:41;38.80;45.20
7708;DHT22;3896;48.758;8.888;2023-08-24T14:43:07;38.50;45.00
7708;DHT22;3896;48.758;8.888;2023-08-24T14:45:33;38.20;46.90
7708;DHT22;3896;48.758;8.888;2023-08-24T14:47:58;37.80;49.60
7708;DHT22;3896;48.758;8.888;2023-08-24T14:50:25;37.30;51.30
7708;DHT22;3896;48.758;8.888;2023-08-24T14:52:50;36.90;52.70
7708;DHT22;3896;48.758;8.888;2023-08-24T14:55:16;36.40;53.90
7708;DHT22;3896;48.758;8.888;2023-08-24T14:57:43;35.80;55.20
7708;DHT22;3896;48.758;8.888;2023-08-24T15:00:10;35.50;56.60
7708;DHT22;3896;48.758;8.888;2023-08-24T15:02:36;35.10;56.90
7708;DHT22;3896;48.758;8.888;2023-08-24T15:05:03;34.80;57.90
7708;DHT22;3896;48.758;8.888;2023-08-24T15:07:30;34.40;58.50
7708;DHT22;3896;48.758;8.888;2023-08-24T15:09:55;34.10;59.50
7708;DHT22;3896;48.758;8.888;2023-08-24T15:12:21;33.80;60.40
7708;DHT22;3896;48.758;8.888;2023-08-24T15:14:58;33.60;61.10
7708;DHT22;3896;48.758;8.888;2023-08-24T15:17:23;33.30;61.10
7708;DHT22;3896;48.758;8.888;2023-08-24T15:19:50;33.10;62.10
7708;DHT22;3896;48.758;8.888;2023-08-24T15:22:15;32.90;62.70
7708;DHT22;3896;48.758;8.888;2023-08-24T15:24:41;32.70;63.40
7708;DHT22;3896;48.758;8.888;2023-08-24T15:27:07;32.50;64.20
7708;DHT22;3896;48.758;8.888;2023-08-24T15:29:33;32.40;64.70
7708;DHT22;3896;48.758;8.888;2023-08-24T15:31:59;32.30;65.10
7708;DHT22;3896;48.758;8.888;2023-08-24T15:34:25;32.10;66.00
7708;DHT22;3896;48.758;8.888;2023-08-24T15:36:51;31.90;66.70
7708;DHT22;3896;48.758;8.888;2023-08-24T15:39:18;31.80;67.20
7708;DHT22;3896;48.758;8.888;2023-08-24T15:41:44;31.60;68.00
7708;DHT22;3896;48.758;8.888;2023-08-24T15:44:10;31.50;68.70
7708;DHT22;3896;48.758;8.888;2023-08-24T15:46:35;31.30;68.90
7708;DHT22;3896;48.758;8.888;2023-08-24T15:49:01;31.20;69.00
7708;DHT22;3896;48.758;8.888;2023-08-24T15:51:26;31.10;69.80
7708;DHT22;3896;48.758;8.888;2023-08-24T15:53:52;30.90;70.40
7708;DHT22;3896;48.758;8.888;2023-08-24T15:56:17;30.80;71.30
7708;DHT22;3896;48.758;8.888;2023-08-24T15:58:43;30.70;72.30
7708;DHT22;3896;48.758;8.888;2023-08-24T16:01:09;30.50;72.00
7708;DHT22;3896;48.758;8.888;2023-08-24T16:03:34;30.40;72.70
7708;DHT22;3896;48.758;8.888;2023-08-24T16:06:00;30.40;73.60
7708;DHT22;3896;48.758;8.888;2023-08-24T16:08:26;30.20;73.90
7708;DHT22;3896;48.758;8.888;2023-08-24T16:10:56;30.10;74.80
7708;DHT22;3896;48.758;8.888;2023-08-24T16:13:24;30.10;75.40
7708;DHT22;3896;48.758;8.888;2023-08-24T16:15:50;30.10;76.60
7708;DHT22;3896;48.758;8.888;2023-08-24T16:18:22;30.00;76.20